sensor_id;sensor_type;location;lat;lon;timestamp;temperature;humidity
21698;DHT22;11010;49.548;11.926;2023-03-01T00:01:30;0.80;99.90
21698;DHT22;11010;49.548;11.926;2023-03-01T00:03:58;0.70;99.90
21698;DHT22;11010;49.548;11.926;2023-03-01T00:06:26;0.90;99.90
21698;DHT22;11010;49.548;11.926;2023-03-01T00:08:55;0.80;99.90
21698;DHT22;11010;49.548;11.926;2023-03-01T00:11:30;0.80;99.90
21698;DHT22;11010;49.548;11.926;2023-03-01T00:13:59;0.80;99.90
21698;DHT22;11010;49.548;11.926;2023-03-01T00:16:31;0.50;99.90
21698;DHT22;11010;49.548;11.926;2023-03-01T00:18:59;0.70;99.90
21698;DHT22;11010;49.548;11.926;2023-03-01T00:21:27;0.40;99.90
21698;DHT22;11010;49.548;11.926;2023-03-01T00:23:55;0.70;99.90
21698;DHT22;11010;49.548;11.926;2023-03-01T00:26:24;0.50;99.90
21698;DHT22;11010;49.548;11.926;2023-03-01T00:28:52;0.50;99.90
21698;DHT22;11010;49.548;11.926;2023-03-01T00:31:22;0.50;99.90
21698;DHT22;11010;49.548;11.926;2023-03-01T00:33:55;0.50;99.90
21698;DHT22;11010;49.548;11.926;2023-03-01T00:36:29;0.40;99.90
21698;DHT22;11010;49.548;11.926;2023-03-01T00:38:58;0.30;99.90
21698;DHT22;11010;49.548;11.926;2023-03-01T00:41:25;0.50;99.90
21698;DHT22;11010;49.548;11.926;2023-03-01T00:43:56;0.50;99.90
21698;DHT22;11010;49.548;11.926;2023-03-01T00:46:25;0.60;99.90
21698;DHT22;11010;49.548;11.926;2023-03-01T00:48:54;0.60;99.90
21698;DHT22;11010;49.548;11.926;2023-03-01T00:51:24;0.50;99.90
21698;DHT22;11010;49.548;11.926;2023-03-01T00:53:54;0.50;99.90
21698;DHT22;11010;49.548;11.926;2023-03-01T00:56:22;0.50;99.90
21698;DHT22;11010;49.548;11.926;2023-03-01T00:58:50;0.60;99.90
21698;DHT22;11010;49.548;11.926;2023-03-01T01:01:21;0.60;99.90
21698;DHT22;11010;49.548;11.926;2023-03-01T01:03:54;0.50;99.90
21698;DHT22;11010;49.548;11.926;2023-03-01T01:06:25;0.30;99.90
21698;DHT22;11010;49.548;11.926;2023-03-01T01:08:53;0.40;99.90
21698;DHT22;11010;49.548;11.926;2023-03-01T01:11:23;0.50;99.90
21698;DHT22;11010;49.548;11.926;2023-03-01T01:13:50;0.40;99.90
21698;DHT22;11010;49.548;11.926;2023-03-01T01:16:19;0.40;99.90
21698;DHT22;11010;49.548;11.926;2023-03-01T01:18:47;0.50;99.90
21698;DHT22;11010;49.548;11.926;2023-03-01T01:21:18;0.30;99.90
21698;DHT22;11010;49.548;11.926;2023-03-01T01:23:46;0.30;99.90
21698;DHT22;11010;49.548;11.926;2023-03-01T01:26:20;0.30;99.90
21698;DHT22;11010;49.548;11.926;2023-03-01T01:28:49;0.40;99.90
21698;DHT22;11010;49.548;11.926;2023-03-01T01:31:17;0.40;99.90
21698;DHT22;11010;49.548;11.926;2023-03-01T01:33:45;0.60;99.90
21698;DHT22;11010;49.548;11.926;2023-03-01T01:36:13;0.60;99.90
21698;DHT22;11010;49.548;11.926;2023-03-01T01:38:40;0.50;99.90
21698;DHT22;11010;49.548;11.926;2023-03-01T01:41:10;0.50;99.90
21698;DHT22;11010;49.548;11.926;2023-03-01T01:43:48;0.50;99.90
21698;DHT22;11010;49.548;11.926;2023-03-01T01:46:31;0.40;99.90
21698;DHT22;11010;49.548;11.926;2023-03-01T01:49:03;0.40;99.90
21698;DHT22;11010;49.548;11.926;2023-03-01T01:51:37;0.40;99.90
21698;DHT22;11010;49.548;11.926;2023-03-01T01:57:09;0.30;99.90
21698;DHT22;11010;49.548;11.926;2023-03-01T01:59:39;0.30;99.90
21698;DHT22;11010;49.548;11.926;2023-03-01T02:02:09;0.20;99.90
21698;DHT22;11010;49.548;11.926;2023-03-01T02:04:36;0.20;99.90
21698;DHT22;11010;49.548;11.926;2023-03-01T02:07:16;0.30;99.90
21698;DHT22;11010;49.548;11.926;2023-03-01T02:09:47;0.00;99.90
21698;DHT22;11010;49.548;11.926;2023-03-01T02:12:18;-0.10;99.90
21698;DHT22;11010;49.548;11.926;2023-03-01T02:14:46;-0.10;99.90
21698;DHT22;11010;49.548;11.926;2023-03-01T02:17:16;-0.10;99.90
21698;DHT22;11010;49.548;11.926;2023-03-01T02:22:36;-0.10;99.90
21698;DHT22;11010;49.548;11.926;2023-03-01T02:30:25;-0.20;99.90
21698;DHT22;11010;49.548;11.926;2023-03-01T02:32:54;0.00;99.90
21698;DHT22;11010;49.548;11.926;2023-03-01T02:35:38;0.00;99.90
21698;DHT22;11010;49.548;11.926;2023-03-01T02:38:07;0.20;99.90
21698;DHT22;11010;49.548;11.926;2023-03-01T02:40:37;0.20;99.90
21698;DHT22;11010;49.548;11.926;2023-03-01T02:43:08;0.30;99.90
21698;DHT22;11010;49.548;11.926;2023-03-01T02:45:48;0.10;99.90
21698;DHT22;11010;49.548;11.926;2023-03-01T02:48:16;0.10;99.90
21698;DHT22;11010;49.548;11.926;2023-03-01T02:56:02;0.20;99.90
21698;DHT22;11010;49.548;11.926;2023-03-01T02:58:29;0.20;99.90
21698;DHT22;11010;49.548;11.926;2023-03-01T03:00:57;0.10;99.90
21698;DHT22;11010;49.548;11.926;2023-03-01T03:03:25;0.20;99.90
21698;DHT22;11010;49.548;11.926;2023-03-01T03:05:53;0.20;99.90
21698;DHT22;11010;49.548;11.926;2023-03-01T03:08:20;0.10;99.90
21698;DHT22;11010;49.548;11.926;2023-03-01T03:10:52;0.20;99.90
21698;DHT22;11010;49.548;11.926;2023-03-01T03:13:20;0.10;99.90
21698;DHT22;11010;49.548;11.926;2023-03-01T03:15:49;0.00;99.90
21698;DHT22;11010;49.548;11.926;2023-03-01T03:18:17;0.00;99.90
21698;DHT22;11010;49.548;11.926;2023-03-01T03:20:45;0.00;99.90
21698;DHT22;11010;49.548;11.926;2023-03-01T03:23:13;-0.10;99.90
21698;DHT22;11010;49.548;11.926;2023-03-01T03:25:41;0.00;99.90
21698;DHT22;11010;49.548;11.926;2023-03-01T03:28:08;0.00;99.90
21698;DHT22;11010;49.548;11.926;2023-03-01T03:30:40;-0.10;99.90
21698;DHT22;11010;49.548;11.926;2023-03-01T03:33:09;-0.10;99.90
21698;DHT22;11010;49.548;11.926;2023-03-01T03:35:44;-0.10;99.90
21698;DHT22;11010;49.548;11.926;2023-03-01T03:38:14;-0.10;99.90
21698;DHT22;11010;49.548;11.926;2023-03-01T03:40:50;0.00;99.90
21698;DHT22;11010;49.548;11.926;2023-03-01T03:43:22;0.00;99.90
21698;DHT22;11010;49.548;11.926;2023-03-01T03:45:51;0.00;99.90
21698;DHT22;11010;49.548;11.926;2023-03-01T03:48:19;0.00;99.90
21698;DHT22;11010;49.548;11.926;2023-03-01T03:50:52;-0.10;99.90
21698;DHT22;11010;49.548;11.926;2023-03-01T03:53:21;-0.30;99.90
21698;DHT22;11010;49.548;11.926;2023-03-01T03:55:49;-0.40;99.90
21698;DHT22;11010;49.548;11.926;2023-03-01T03:58:17;-0.40;99.90
21698;DHT22;11010;49.548;11.926;2023-03-01T04:00:48;-0.40;99.90
21698;DHT22;11010;49.548;11.926;2023-03-01T04:03:17;-0.40;99.90
21698;DHT22;11010;49.548;11.926;2023-03-01T04:05:46;-0.20;99.90
21698;DHT22;11010;49.548;11.926;2023-03-01T04:08:14;-0.30;99.90
21698;DHT22;11010;49.548;11.926;2023-03-01T04:10:46;-0.20;99.90
21698;DHT22;11010;49.548;11.926;2023-03-01T04:13:18;-0.30;99.90
21698;DHT22;11010;49.548;11.926;2023-03-01T04:15:51;-0.30;99.90
21698;DHT22;11010;49.548;11.926;2023-03-01T04:18:21;-0.20;99.90
21698;DHT22;11010;49.548;11.926;2023-03-01T04:20:50;-0.20;99.90
21698;DHT22;11010;49.548;11.926;2023-03-01T04:23:20;-0.20;99.90
21698;DHT22;11010;49.548;11.926;2023-03-01T04:25:58;-0.40;99.90
21698;DHT22;11010;49.548;11.926;2023-03-01T04:28:38;-0.50;99.90
21698;DHT22;11010;49.548;11.926;2023-03-01T04:31:10;-0.80;99.90
21698;DHT22;11010;49.548;11.926;2023-03-01T04:33:49;-0.70;99.90
21698;DHT22;11010;49.548;11.926;2023-03-01T04:36:20;-0.80;99.90
21698;DHT22;11010;49.548;11.926;2023-03-01T04:42:49;-0.70;99.90
21698;DHT22;11010;49.548;11.926;2023-03-01T04:45:17;-0.80;99.90
21698;DHT22;11010;49.548;11.926;2023-03-01T04:47:46;-0.60;99.90
21698;DHT22;11010;49.548;11.926;2023-03-01T04:50:16;-0.70;99.90
21698;DHT22;11010;49.548;11.926;2023-03-01T04:52:44;-0.60;99.90
21698;DHT22;11010;49.548;11.926;2023-03-01T04:55:11;-0.50;99.90
21698;DHT22;11010;49.548;11.926;2023-03-01T04:57:39;-0.40;99.90
21698;DHT22;11010;49.548;11.926;2023-03-01T05:00:10;-0.40;99.90
21698;DHT22;11010;49.548;11.926;2023-03-01T05:05:22;-0.30;99.90
21698;DHT22;11010;49.548;11.926;2023-03-01T05:07:57;-0.50;99.90
21698;DHT22;11010;49.548;11.926;2023-03-01T05:10:26;-0.50;99.90
21698;DHT22;11010;49.548;11.926;2023-03-01T05:12:57;-0.50;99.90
21698;DHT22;11010;49.548;11.926;2023-03-01T05:15:27;-0.70;99.90
21698;DHT22;11010;49.548;11.926;2023-03-01T05:17:59;-0.70;99.90
21698;DHT22;11010;49.548;11.926;2023-03-01T05:20:29;-0.90;99.90
21698;DHT22;11010;49.548;11.926;2023-03-01T05:22:59;-0.90;99.90
21698;DHT22;11010;49.548;11.926;2023-03-01T05:25:27;-0.70;99.90
21698;DHT22;11010;49.548;11.926;2023-03-01T05:28:02;-0.60;99.90
21698;DHT22;11010;49.548;11.926;2023-03-01T05:30:34;-0.60;99.90
21698;DHT22;11010;49.548;11.926;2023-03-01T05:33:02;-0.70;99.90
21698;DHT22;11010;49.548;11.926;2023-03-01T05:35:29;-0.70;99.90
21698;DHT22;11010;49.548;11.926;2023-03-01T05:37:59;-0.60;99.90
21698;DHT22;11010;49.548;11.926;2023-03-01T05:40:27;-0.50;99.90
21698;DHT22;11010;49.548;11.926;2023-03-01T05:42:56;-0.60;99.90
21698;DHT22;11010;49.548;11.926;2023-03-01T05:45:25;-0.60;99.90
21698;DHT22;11010;49.548;11.926;2023-03-01T05:47:53;-0.60;99.90
21698;DHT22;11010;49.548;11.926;2023-03-01T05:50:25;-0.60;99.90
21698;DHT22;11010;49.548;11.926;2023-03-01T05:52:59;-0.50;99.90
21698;DHT22;11010;49.548;11.926;2023-03-01T05:55:28;-0.70;99.90
21698;DHT22;11010;49.548;11.926;2023-03-01T05:57:58;-0.60;99.90
21698;DHT22;11010;49.548;11.926;2023-03-01T06:00:27;-0.60;99.90
21698;DHT22;11010;49.548;11.926;2023-03-01T06:02:56;-0.70;99.90
21698;DHT22;11010;49.548;11.926;2023-03-01T06:05:24;-0.70;99.90
21698;DHT22;11010;49.548;11.926;2023-03-01T06:07:52;-0.60;99.90
21698;DHT22;11010;49.548;11.926;2023-03-01T06:10:21;-0.60;99.90
21698;DHT22;11010;49.548;11.926;2023-03-01T06:12:49;-0.60;99.90
21698;DHT22;11010;49.548;11.926;2023-03-01T06:15:16;-0.60;99.90
21698;DHT22;11010;49.548;11.926;2023-03-01T06:17:46;-0.70;99.90
21698;DHT22;11010;49.548;11.926;2023-03-01T06:20:14;-0.70;99.90
21698;DHT22;11010;49.548;11.926;2023-03-01T06:22:43;-0.70;99.90
21698;DHT22;11010;49.548;11.926;2023-03-01T06:25:12;-0.60;99.90
21698;DHT22;11010;49.548;11.926;2023-03-01T06:27:40;-0.70;99.90
21698;DHT22;11010;49.548;11.926;2023-03-01T06:30:11;-0.70;99.90
21698;DHT22;11010;49.548;11.926;2023-03-01T06:32:39;-0.70;99.90
21698;DHT22;11010;49.548;11.926;2023-03-01T06:35:11;-0.70;99.90
21698;DHT22;11010;49.548;11.926;2023-03-01T06:37:40;-0.60;99.90
21698;DHT22;11010;49.548;11.926;2023-03-01T06:40:08;-0.70;99.90
21698;DHT22;11010;49.548;11.926;2023-03-01T06:42:40;-0.60;99.90
21698;DHT22;11010;49.548;11.926;2023-03-01T06:45:09;-0.60;99.90
21698;DHT22;11010;49.548;11.926;2023-03-01T06:47:36;-0.60;99.90
21698;DHT22;11010;49.548;11.926;2023-03-01T06:50:04;-0.60;99.90
21698;DHT22;11010;49.548;11.926;2023-03-01T06:52:32;-0.60;99.90
21698;DHT22;11010;49.548;11.926;2023-03-01T06:55:00;-0.60;99.90
21698;DHT22;11010;49.548;11.926;2023-03-01T06:57:27;-0.50;99.90
21698;DHT22;11010;49.548;11.926;2023-03-01T06:59:55;-0.50;99.90
21698;DHT22;11010;49.548;11.926;2023-03-01T07:02:23;-0.60;99.90
21698;DHT22;11010;49.548;11.926;2023-03-01T07:04:51;-0.60;99.90
21698;DHT22;11010;49.548;11.926;2023-03-01T07:07:19;-0.60;99.90
21698;DHT22;11010;49.548;11.926;2023-03-01T07:09:48;-0.70;99.90
21698;DHT22;11010;49.548;11.926;2023-03-01T07:12:16;-0.60;99.90
21698;DHT22;11010;49.548;11.926;2023-03-01T07:14:44;-0.50;99.90
21698;DHT22;11010;49.548;11.926;2023-03-01T07:17:11;-0.40;99.90
21698;DHT22;11010;49.548;11.926;2023-03-01T07:19:39;-0.60;99.90
21698;DHT22;11010;49.548;11.926;2023-03-01T07:22:06;-0.50;99.90
21698;DHT22;11010;49.548;11.926;2023-03-01T07:24:34;-0.40;99.90
21698;DHT22;11010;49.548;11.926;2023-03-01T07:27:02;-0.60;99.90
21698;DHT22;11010;49.548;11.926;2023-03-01T07:29:30;-0.50;99.90
21698;DHT22;11010;49.548;11.926;2023-03-01T07:31:57;-0.50;99.90
21698;DHT22;11010;49.548;11.926;2023-03-01T07:34:25;-0.60;99.90
21698;DHT22;11010;49.548;11.926;2023-03-01T07:36:53;-0.60;99.90
21698;DHT22;11010;49.548;11.926;2023-03-01T07:39:20;-0.40;99.90
21698;DHT22;11010;49.548;11.926;2023-03-01T07:41:50;-0.40;99.90
21698;DHT22;11010;49.548;11.926;2023-03-01T07:44:21;-0.40;99.90
21698;DHT22;11010;49.548;11.926;2023-03-01T07:46:48;-0.30;99.90
21698;DHT22;11010;49.548;11.926;2023-03-01T07:49:16;-0.40;99.90
21698;DHT22;11010;49.548;11.926;2023-03-01T07:51:43;-0.30;99.90
21698;DHT22;11010;49.548;11.926;2023-03-01T07:54:11;-0.30;99.90
21698;DHT22;11010;49.548;11.926;2023-03-01T07:56:38;-0.20;99.90
21698;DHT22;11010;49.548;11.926;2023-03-01T07:59:05;-0.20;99.90
21698;DHT22;11010;49.548;11.926;2023-03-01T08:01:33;-0.20;99.90
21698;DHT22;11010;49.548;11.926;2023-03-01T08:04:00;-0.10;99.90
21698;DHT22;11010;49.548;11.926;2023-03-01T08:06:28;-0.10;99.90
21698;DHT22;11010;49.548;11.926;2023-03-01T08:08:56;-0.10;99.90
21698;DHT22;11010;49.548;11.926;2023-03-01T08:11:25;-0.10;99.90
21698;DHT22;11010;49.548;11.926;2023-03-01T08:13:55;0.00;99.90
21698;DHT22;11010;49.548;11.926;2023-03-01T08:16:23;0.00;99.90
21698;DHT22;11010;49.548;11.926;2023-03-01T08:18:51;0.10;99.90
21698;DHT22;11010;49.548;11.926;2023-03-01T08:21:18;0.10;99.90
21698;DHT22;11010;49.548;11.926;2023-03-01T08:23:46;0.10;99.90
21698;DHT22;11010;49.548;11.926;2023-03-01T08:26:16;0.20;99.90
21698;DHT22;11010;49.548;11.926;2023-03-01T08:28:44;0.20;99.90
21698;DHT22;11010;49.548;11.926;2023-03-01T08:31:28;0.20;99.90
21698;DHT22;11010;49.548;11.926;2023-03-01T08:33:59;0.30;99.90
21698;DHT22;11010;49.548;11.926;2023-03-01T08:36:32;0.30;99.90
21698;DHT22;11010;49.548;11.926;2023-03-01T08:39:01;0.40;99.90
21698;DHT22;11010;49.548;11.926;2023-03-01T08:41:29;0.50;99.90
21698;DHT22;11010;49.548;11.926;2023-03-01T08:43:56;0.50;99.90
21698;DHT22;11010;49.548;11.926;2023-03-01T08:46:29;0.50;99.90
21698;DHT22;11010;49.548;11.926;2023-03-01T08:48:57;0.60;99.90
21698;DHT22;11010;49.548;11.926;2023-03-01T08:51:25;0.60;99.90
21698;DHT22;11010;49.548;11.926;2023-03-01T08:53:53;0.70;99.90
21698;DHT22;11010;49.548;11.926;2023-03-01T08:56:21;0.80;99.90
21698;DHT22;11010;49.548;11.926;2023-03-01T08:58:48;0.90;99.90
21698;DHT22;11010;49.548;11.926;2023-03-01T09:01:18;0.90;99.90
21698;DHT22;11010;49.548;11.926;2023-03-01T09:03:46;0.90;99.90
21698;DHT22;11010;49.548;11.926;2023-03-01T09:06:14;1.00;99.90
21698;DHT22;11010;49.548;11.926;2023-03-01T09:08:44;1.00;99.90
21698;DHT22;11010;49.548;11.926;2023-03-01T09:11:18;1.00;99.90
21698;DHT22;11010;49.548;11.926;2023-03-01T09:13:47;1.10;99.90
21698;DHT22;11010;49.548;11.926;2023-03-01T09:16:17;1.30;99.90
21698;DHT22;11010;49.548;11.926;2023-03-01T09:18:48;1.30;99.90
21698;DHT22;11010;49.548;11.926;2023-03-01T09:21:17;1.30;99.90
21698;DHT22;11010;49.548;11.926;2023-03-01T09:23:57;1.40;99.90
21698;DHT22;11010;49.548;11.926;2023-03-01T09:26:25;1.40;99.90
21698;DHT22;11010;49.548;11.926;2023-03-01T09:28:54;1.50;99.90
21698;DHT22;11010;49.548;11.926;2023-03-01T09:31:23;1.70;99.90
21698;DHT22;11010;49.548;11.926;2023-03-01T09:33:53;1.80;99.90
21698;DHT22;11010;49.548;11.926;2023-03-01T09:36:22;1.90;99.90
21698;DHT22;11010;49.548;11.926;2023-03-01T09:38:51;2.00;99.90
21698;DHT22;11010;49.548;11.926;2023-03-01T09:44:01;2.20;99.90
21698;DHT22;11010;49.548;11.926;2023-03-01T09:46:38;2.30;99.90
21698;DHT22;11010;49.548;11.926;2023-03-01T09:49:22;2.50;99.90
21698;DHT22;11010;49.548;11.926;2023-03-01T09:54:27;2.70;99.90
21698;DHT22;11010;49.548;11.926;2023-03-01T09:59:41;3.00;99.90
21698;DHT22;11010;49.548;11.926;2023-03-01T10:05:05;3.20;99.90
21698;DHT22;11010;49.548;11.926;2023-03-01T10:10:33;3.50;99.90
21698;DHT22;11010;49.548;11.926;2023-03-01T10:13:31;3.80;99.90
21698;DHT22;11010;49.548;11.926;2023-03-01T10:16:12;4.00;99.90
21698;DHT22;11010;49.548;11.926;2023-03-01T10:18:41;3.90;99.90
21698;DHT22;11010;49.548;11.926;2023-03-01T10:21:17;4.10;99.90
21698;DHT22;11010;49.548;11.926;2023-03-01T10:23:45;4.30;99.90
21698;DHT22;11010;49.548;11.926;2023-03-01T10:26:41;4.30;99.90
21698;DHT22;11010;49.548;11.926;2023-03-01T10:29:12;4.50;99.90
21698;DHT22;11010;49.548;11.926;2023-03-01T10:31:49;4.70;99.90
21698;DHT22;11010;49.548;11.926;2023-03-01T10:34:21;4.70;99.90
21698;DHT22;11010;49.548;11.926;2023-03-01T10:36:51;4.80;99.90
21698;DHT22;11010;49.548;11.926;2023-03-01T10:39:22;5.00;99.90
21698;DHT22;11010;49.548;11.926;2023-03-01T10:42:02;5.10;99.90
21698;DHT22;11010;49.548;11.926;2023-03-01T10:44:47;5.40;99.90
21698;DHT22;11010;49.548;11.926;2023-03-01T10:47:27;5.50;99.90
21698;DHT22;11010;49.548;11.926;2023-03-01T10:50:00;5.50;99.90
21698;DHT22;11010;49.548;11.926;2023-03-01T10:52:39;5.80;99.90
21698;DHT22;11010;49.548;11.926;2023-03-01T10:55:24;5.90;99.90
21698;DHT22;11010;49.548;11.926;2023-03-01T11:03:38;6.40;99.90
21698;DHT22;11010;49.548;11.926;2023-03-01T11:08:45;6.40;99.90
21698;DHT22;11010;49.548;11.926;2023-03-01T11:11:23;6.50;99.90
21698;DHT22;11010;49.548;11.926;2023-03-01T11:13:58;6.70;99.90
21698;DHT22;11010;49.548;11.926;2023-03-01T11:16:33;6.70;99.90
21698;DHT22;11010;49.548;11.926;2023-03-01T11:24:29;6.90;99.90
21698;DHT22;11010;49.548;11.926;2023-03-01T11:27:03;7.10;99.90
21698;DHT22;11010;49.548;11.926;2023-03-01T11:29:42;7.30;99.90
21698;DHT22;11010;49.548;11.926;2023-03-01T11:32:15;7.50;99.90
21698;DHT22;11010;49.548;11.926;2023-03-01T11:34:56;7.90;99.90
21698;DHT22;11010;49.548;11.926;2023-03-01T11:37:40;8.20;99.90
21698;DHT22;11010;49.548;11.926;2023-03-01T11:40:24;8.20;99.90
21698;DHT22;11010;49.548;11.926;2023-03-01T11:50:48;8.80;99.90
21698;DHT22;11010;49.548;11.926;2023-03-01T11:56:32;9.10;99.90
21698;DHT22;11010;49.548;11.926;2023-03-01T11:59:44;8.90;99.90
21698;DHT22;11010;49.548;11.926;2023-03-01T12:05:41;9.30;99.90
21698;DHT22;11010;49.548;11.926;2023-03-01T12:10:45;9.20;99.90
21698;DHT22;11010;49.548;11.926;2023-03-01T12:21:58;9.30;99.90
21698;DHT22;11010;49.548;11.926;2023-03-01T12:24:41;9.50;99.90
21698;DHT22;11010;49.548;11.926;2023-03-01T12:38:48;10.10;99.90
21698;DHT22;11010;49.548;11.926;2023-03-01T12:41:35;9.90;99.90
21698;DHT22;11010;49.548;11.926;2023-03-01T12:44:29;10.00;99.90
21698;DHT22;11010;49.548;11.926;2023-03-01T12:49:57;10.10;99.90
21698;DHT22;11010;49.548;11.926;2023-03-01T12:52:43;10.20;99.90
21698;DHT22;11010;49.548;11.926;2023-03-01T12:55:37;10.30;99.90
21698;DHT22;11010;49.548;11.926;2023-03-01T12:58:52;10.20;99.90
21698;DHT22;11010;49.548;11.926;2023-03-01T13:01:27;9.80;99.90
21698;DHT22;11010;49.548;11.926;2023-03-01T13:04:15;9.40;99.90
21698;DHT22;11010;49.548;11.926;2023-03-01T13:11:47;10.00;99.90
21698;DHT22;11010;49.548;11.926;2023-03-01T13:16:49;10.60;99.90
21698;DHT22;11010;49.548;11.926;2023-03-01T13:19:23;10.50;99.90
21698;DHT22;11010;49.548;11.926;2023-03-01T13:21:53;10.90;99.90
21698;DHT22;11010;49.548;11.926;2023-03-01T13:32:32;11.50;99.90
21698;DHT22;11010;49.548;11.926;2023-03-01T13:37:46;11.70;99.90
21698;DHT22;11010;49.548;11.926;2023-03-01T13:42:49;11.50;99.90
21698;DHT22;11010;49.548;11.926;2023-03-01T13:45:40;11.60;99.90
21698;DHT22;11010;49.548;11.926;2023-03-01T13:50:43;11.40;99.90
21698;DHT22;11010;49.548;11.926;2023-03-01T13:53:17;11.90;99.90
21698;DHT22;11010;49.548;11.926;2023-03-01T13:55:48;12.20;99.90
21698;DHT22;11010;49.548;11.926;2023-03-01T14:01:04;11.70;99.90
21698;DHT22;11010;49.548;11.926;2023-03-01T14:03:33;11.50;99.90
21698;DHT22;11010;49.548;11.926;2023-03-01T14:08:46;11.80;99.90
21698;DHT22;11010;49.548;11.926;2023-03-01T14:14:34;12.10;99.90
21698;DHT22;11010;49.548;11.926;2023-03-01T14:22:44;12.80;99.90
21698;DHT22;11010;49.548;11.926;2023-03-01T14:25:36;12.50;99.90
21698;DHT22;11010;49.548;11.926;2023-03-01T14:30:51;11.90;99.90
21698;DHT22;11010;49.548;11.926;2023-03-01T14:33:34;11.10;99.90
21698;DHT22;11010;49.548;11.926;2023-03-01T14:36:07;11.60;99.90
21698;DHT22;11010;49.548;11.926;2023-03-01T14:38:40;11.80;99.90
21698;DHT22;11010;49.548;11.926;2023-03-01T14:41:20;11.10;99.90
21698;DHT22;11010;49.548;11.926;2023-03-01T14:43:57;10.80;99.90
21698;DHT22;11010;49.548;11.926;2023-03-01T14:49:03;11.30;99.90
21698;DHT22;11010;49.548;11.926;2023-03-01T14:51:40;11.30;99.90
21698;DHT22;11010;49.548;11.926;2023-03-01T14:54:22;11.10;99.90
21698;DHT22;11010;49.548;11.926;2023-03-01T14:56:52;11.00;99.90
21698;DHT22;11010;49.548;11.926;2023-03-01T14:59:24;11.00;99.90
21698;DHT22;11010;49.548;11.926;2023-03-01T15:01:54;11.20;99.90
21698;DHT22;11010;49.548;11.926;2023-03-01T15:04:23;11.20;99.90
21698;DHT22;11010;49.548;11.926;2023-03-01T15:06:53;11.20;99.90
21698;DHT22;11010;49.548;11.926;2023-03-01T15:09:22;11.00;99.90
21698;DHT22;11010;49.548;11.926;2023-03-01T15:11:49;11.20;99.90
21698;DHT22;11010;49.548;11.926;2023-03-01T15:17:38;11.00;99.90
21698;DHT22;11010;49.548;11.926;2023-03-01T15:20:15;10.30;99.90
21698;DHT22;11010;49.548;11.926;2023-03-01T15:22:44;10.90;99.90
21698;DHT22;11010;49.548;11.926;2023-03-01T15:25:24;10.80;99.90
21698;DHT22;11010;49.548;11.926;2023-03-01T15:27:54;10.60;99.90
21698;DHT22;11010;49.548;11.926;2023-03-01T15:30:40;10.50;99.90
21698;DHT22;11010;49.548;11.926;2023-03-01T15:35:56;9.80;99.90
21698;DHT22;11010;49.548;11.926;2023-03-01T15:38:33;9.50;99.90
21698;DHT22;11010;49.548;11.926;2023-03-01T15:41:21;9.40;99.90
21698;DHT22;11010;49.548;11.926;2023-03-01T15:43:50;9.10;99.90
21698;DHT22;11010;49.548;11.926;2023-03-01T15:46:32;9.10;99.90
21698;DHT22;11010;49.548;11.926;2023-03-01T15:49:05;9.20;99.90
21698;DHT22;11010;49.548;11.926;2023-03-01T15:51:37;9.00;99.90
21698;DHT22;11010;49.548;11.926;2023-03-01T15:54:19;8.60;99.90
21698;DHT22;11010;49.548;11.926;2023-03-01T15:56:47;8.70;99.90
21698;DHT22;11010;49.548;11.926;2023-03-01T15:59:15;8.40;99.90
21698;DHT22;11010;49.548;11.926;2023-03-01T16:01:44;8.50;99.90
21698;DHT22;11010;49.548;11.926;2023-03-01T16:04:14;8.20;99.90
21698;DHT22;11010;49.548;11.926;2023-03-01T16:06:48;8.10;99.90
21698;DHT22;11010;49.548;11.926;2023-03-01T16:09:25;8.20;99.90
21698;DHT22;11010;49.548;11.926;2023-03-01T16:11:53;8.00;99.90
21698;DHT22;11010;49.548;11.926;2023-03-01T16:14:21;8.10;99.90
21698;DHT22;11010;49.548;11.926;2023-03-01T16:16:49;8.10;99.90
21698;DHT22;11010;49.548;11.926;2023-03-01T16:19:16;8.00;99.90
21698;DHT22;11010;49.548;11.926;2023-03-01T16:21:44;7.90;99.90
21698;DHT22;11010;49.548;11.926;2023-03-01T16:24:14;7.80;99.90
21698;DHT22;11010;49.548;11.926;2023-03-01T16:26:41;7.40;99.90
21698;DHT22;11010;49.548;11.926;2023-03-01T16:29:09;7.20;99.90
21698;DHT22;11010;49.548;11.926;2023-03-01T16:31:36;7.20;99.90
21698;DHT22;11010;49.548;11.926;2023-03-01T16:34:04;7.20;99.90
21698;DHT22;11010;49.548;11.926;2023-03-01T16:36:32;7.30;99.90
21698;DHT22;11010;49.548;11.926;2023-03-01T16:38:59;7.20;99.90
21698;DHT22;11010;49.548;11.926;2023-03-01T16:41:30;7.10;99.90
21698;DHT22;11010;49.548;11.926;2023-03-01T16:43:58;6.90;99.90
21698;DHT22;11010;49.548;11.926;2023-03-01T16:46:28;6.90;99.90
21698;DHT22;11010;49.548;11.926;2023-03-01T16:48:56;6.80;99.90
21698;DHT22;11010;49.548;11.926;2023-03-01T16:51:24;6.50;99.90
21698;DHT22;11010;49.548;11.926;2023-03-01T16:53:52;6.40;99.90
21698;DHT22;11010;49.548;11.926;2023-03-01T16:56:20;6.50;99.90
21698;DHT22;11010;49.548;11.926;2023-03-01T16:58:48;6.20;99.90
21698;DHT22;11010;49.548;11.926;2023-03-01T17:01:20;6.10;99.90
21698;DHT22;11010;49.548;11.926;2023-03-01T17:03:50;6.20;99.90
21698;DHT22;11010;49.548;11.926;2023-03-01T17:06:19;6.20;99.90
21698;DHT22;11010;49.548;11.926;2023-03-01T17:08:49;6.30;99.90
21698;DHT22;11010;49.548;11.926;2023-03-01T17:11:18;6.30;99.90
21698;DHT22;11010;49.548;11.926;2023-03-01T17:13:47;6.30;99.90
21698;DHT22;11010;49.548;11.926;2023-03-01T17:16:17;6.10;99.90
21698;DHT22;11010;49.548;11.926;2023-03-01T17:18:45;6.10;99.90
21698;DHT22;11010;49.548;11.926;2023-03-01T17:21:13;6.00;99.90
21698;DHT22;11010;49.548;11.926;2023-03-01T17:23:43;6.00;99.90
21698;DHT22;11010;49.548;11.926;2023-03-01T17:26:11;6.00;99.90
21698;DHT22;11010;49.548;11.926;2023-03-01T17:28:40;5.80;99.90
21698;DHT22;11010;49.548;11.926;2023-03-01T17:31:07;5.70;99.90
21698;DHT22;11010;49.548;11.926;2023-03-01T17:33:35;5.70;99.90
21698;DHT22;11010;49.548;11.926;2023-03-01T17:36:03;5.60;99.90
21698;DHT22;11010;49.548;11.926;2023-03-01T17:38:31;5.80;99.90
21698;DHT22;11010;49.548;11.926;2023-03-01T17:41:00;5.80;99.90
21698;DHT22;11010;49.548;11.926;2023-03-01T17:43:27;5.70;99.90
21698;DHT22;11010;49.548;11.926;2023-03-01T17:45:56;5.80;99.90
21698;DHT22;11010;49.548;11.926;2023-03-01T17:48:23;5.80;99.90
21698;DHT22;11010;49.548;11.926;2023-03-01T17:50:52;5.80;99.90
21698;DHT22;11010;49.548;11.926;2023-03-01T17:53:19;5.60;99.90
21698;DHT22;11010;49.548;11.926;2023-03-01T17:55:47;5.40;99.90
21698;DHT22;11010;49.548;11.926;2023-03-01T17:58:20;5.50;99.90
21698;DHT22;11010;49.548;11.926;2023-03-01T18:00:49;5.60;99.90
21698;DHT22;11010;49.548;11.926;2023-03-01T18:03:17;5.20;99.90
21698;DHT22;11010;49.548;11.926;2023-03-01T18:05:44;5.50;99.90
21698;DHT22;11010;49.548;11.926;2023-03-01T18:08:12;5.70;99.90
21698;DHT22;11010;49.548;11.926;2023-03-01T18:10:40;5.60;99.90